Time;durP1;ratioP1;P1;durP2;ratioP2;P2;SDS_P1;SDS_P2;PMS_P1;PMS_P2;Temp;Humidity;BMP_temperature;BMP_pressure;BME280_temperature;BME280_humidity;BME280_pressure;Samples;Min_cycle;Max_cycle;Signal;HPM_P1;HPM_P2
2021/10/27 00:00:09;;;;;;;14.38;9.95;;;13.70;99.90;;;;;;5066890;28;20207;-70
2021/10/27 00:02:36;;;;;;;17.17;10.50;;;13.60;99.90;;;;;;5064979;28;20228;-71
2021/10/27 00:05:06;;;;;;;15.00;10.57;;;13.60;99.90;;;;;;5064880;28;20215;-72
2021/10/27 00:07:34;;;;;;;13.88;11.13;;;13.60;99.90;;;;;;5064635;28;20209;-71
2021/10/27 00:10:01;;;;;;;21.00;12.15;;;13.60;99.90;;;;;;5065534;28;20201;-71
2021/10/27 00:12:29;;;;;;;16.60;11.18;;;13.60;99.90;;;;;;5064039;28;20226;-71
2021/10/27 00:14:57;;;;;;;17.40;10.35;;;13.60;99.90;;;;;;5063753;28;20666;-71
2021/10/27 00:17:24;;;;;;;15.63;11.57;;;13.60;99.90;;;;;;5069076;28;20603;-71
2021/10/27 00:19:52;;;;;;;15.15;11.55;;;13.60;99.90;;;;;;5063637;28;20265;-71
2021/10/27 00:22:21;;;;;;;15.63;10.40;;;13.60;99.90;;;;;;5056016;28;20223;-71
2021/10/27 00:24:48;;;;;;;23.70;13.20;;;13.70;99.90;;;;;;5073586;28;20281;-71
2021/10/27 00:27:15;;;;;;;18.88;12.45;;;13.60;99.90;;;;;;5068541;28;20559;-71
2021/10/27 00:29:42;;;;;;;18.73;11.43;;;13.60;99.90;;;;;;5069926;28;20574;-71
2021/10/27 00:32:09;;;;;;;16.20;10.85;;;13.60;99.90;;;;;;5068852;28;20223;-71
2021/10/27 00:34:38;;;;;;;15.55;11.98;;;13.60;99.90;;;;;;5067523;28;20214;-71
2021/10/27 00:37:05;;;;;;;16.75;12.73;;;13.70;99.90;;;;;;5069857;28;20214;-71
2021/10/27 00:39:36;;;;;;;19.55;13.43;;;13.70;99.90;;;;;;5069071;28;20199;-70
2021/10/27 00:42:04;;;;;;;18.83;12.63;;;13.70;99.90;;;;;;5059205;28;20300;-71
2021/10/27 00:44:33;;;;;;;19.27;13.65;;;13.70;99.90;;;;;;5057719;28;20704;-70
2021/10/27 00:47:00;;;;;;;20.52;13.15;;;13.60;99.90;;;;;;5058662;28;20206;-70
2021/10/27 00:49:32;;;;;;;16.25;12.25;;;13.60;99.90;;;;;;5072523;28;20202;-70
2021/10/27 00:52:00;;;;;;;18.13;12.80;;;13.60;99.90;;;;;;5057793;28;20225;-70
2021/10/27 00:54:29;;;;;;;23.83;13.30;;;13.60;99.90;;;;;;5069516;28;20284;-70
2021/10/27 00:57:02;;;;;;;24.67;15.60;;;13.60;99.90;;;;;;5067636;28;20222;-70
2021/10/27 00:59:30;;;;;;;17.10;14.27;;;13.50;99.90;;;;;;5070954;28;20538;-70
2021/10/27 01:01:58;;;;;;;19.98;14.27;;;13.50;99.90;;;;;;5071620;28;20249;-70
2021/10/27 01:04:26;;;;;;;23.52;15.18;;;13.50;99.90;;;;;;5069419;28;20586;-70
2021/10/27 01:06:53;;;;;;;23.27;16.50;;;13.50;99.90;;;;;;5064289;28;20210;-70
2021/10/27 01:09:21;;;;;;;23.45;16.33;;;13.60;99.90;;;;;;5056789;28;20265;-70
2021/10/27 01:11:49;;;;;;;18.30;14.32;;;13.50;99.90;;;;;;5066347;28;20229;-71
2021/10/27 01:14:18;;;;;;;25.60;16.95;;;13.50;99.90;;;;;;5065138;28;20295;-70
2021/10/27 01:16:47;;;;;;;24.55;15.60;;;13.60;99.90;;;;;;5069310;28;20198;-70
2021/10/27 01:19:15;;;;;;;23.77;16.73;;;13.60;99.90;;;;;;5065534;28;20196;-70
2021/10/27 01:21:44;;;;;;;24.80;17.00;;;13.60;99.90;;;;;;5067241;28;20213;-70
2021/10/27 01:24:12;;;;;;;30.55;17.92;;;13.60;99.90;;;;;;5072248;28;20218;-70
2021/10/27 01:26:39;;;;;;;28.73;17.00;;;13.70;99.90;;;;;;5070420;28;20209;-70
2021/10/27 01:29:06;;;;;;;22.13;16.90;;;13.60;99.90;;;;;;5068558;28;20317;-70
2021/10/27 01:31:34;;;;;;;28.63;17.05;;;13.70;99.90;;;;;;5068264;28;20574;-70
2021/10/27 01:34:01;;;;;;;21.85;16.60;;;13.70;99.90;;;;;;5067290;28;20609;-70
2021/10/27 01:36:29;;;;;;;23.17;16.13;;;13.70;99.90;;;;;;5057049;28;20200;-70
2021/10/27 01:38:58;;;;;;;22.48;17.20;;;13.70;99.90;;;;;;5058971;28;20262;-70
2021/10/27 01:41:27;;;;;;;27.92;17.70;;;13.80;99.90;;;;;;5059845;28;20200;-70
2021/10/27 01:43:56;;;;;;;25.38;16.10;;;13.70;99.90;;;;;;5063342;28;20569;-70
2021/10/27 01:46:29;;;;;;;31.38;20.10;;;13.70;99.90;;;;;;5061143;28;20570;-70
2021/10/27 01:48:57;;;;;;;24.20;18.23;;;13.70;99.90;;;;;;5062052;28;20199;-70
2021/10/27 01:51:24;;;;;;;27.65;16.10;;;13.80;99.90;;;;;;5060443;28;20229;-70
2021/10/27 01:53:54;;;;;;;23.00;16.65;;;13.70;99.90;;;;;;5066208;28;20672;-70
2021/10/27 01:56:23;;;;;;;21.55;17.30;;;13.70;99.90;;;;;;5068887;28;20203;-70
2021/10/27 01:58:51;;;;;;;26.17;17.50;;;13.70;99.90;;;;;;5066854;28;20254;-70
2021/10/27 02:01:18;;;;;;;22.38;17.17;;;13.70;99.90;;;;;;5058477;28;20214;-70
2021/10/27 02:03:46;;;;;;;24.08;15.68;;;13.80;99.90;;;;;;5075304;28;20225;-69
2021/10/27 02:06:13;;;;;;;25.58;17.30;;;13.70;99.90;;;;;;5085662;28;20223;-70
2021/10/27 02:08:42;;;;;;;20.40;15.55;;;13.80;99.90;;;;;;5069964;28;20255;-69
2021/10/27 02:11:10;;;;;;;20.90;18.48;;;13.80;99.90;;;;;;5069312;28;20203;-70
2021/10/27 02:13:38;;;;;;;30.02;20.38;;;13.70;99.90;;;;;;5063327;28;20294;-70
2021/10/27 02:16:06;;;;;;;29.42;18.98;;;13.70;99.90;;;;;;5067028;28;20221;-70
2021/10/27 02:18:33;;;;;;;29.27;18.15;;;13.70;99.90;;;;;;5072383;28;20200;-71
2021/10/27 02:21:00;;;;;;;29.40;19.30;;;13.70;99.90;;;;;;5065237;28;20198;-70
2021/10/27 02:23:28;;;;;;;26.90;18.85;;;13.70;99.90;;;;;;5067109;28;20278;-70
2021/10/27 02:25:55;;;;;;;27.02;18.85;;;13.80;99.90;;;;;;5080758;28;20222;-70
2021/10/27 02:28:22;;;;;;;27.08;17.83;;;13.80;99.90;;;;;;5065932;28;20238;-70
2021/10/27 02:30:51;;;;;;;33.17;19.33;;;13.80;99.90;;;;;;5075376;28;20203;-70
2021/10/27 02:33:18;;;;;;;28.05;17.38;;;13.80;99.90;;;;;;5063025;28;20255;-70
2021/10/27 02:35:45;;;;;;;28.15;18.00;;;13.70;99.90;;;;;;5067464;28;20606;-71
2021/10/27 02:38:12;;;;;;;26.63;17.90;;;13.80;99.90;;;;;;5072135;28;20200;-71
2021/10/27 02:40:39;;;;;;;21.58;17.63;;;13.70;99.90;;;;;;5062792;28;20203;-70
2021/10/27 02:43:07;;;;;;;31.48;19.77;;;13.80;99.90;;;;;;5072791;28;20221;-70
2021/10/27 02:45:34;;;;;;;25.00;17.83;;;13.80;99.90;;;;;;5083922;28;20759;-70
2021/10/27 02:48:02;;;;;;;26.73;19.52;;;13.80;99.90;;;;;;5072025;28;20207;-70
2021/10/27 02:50:30;;;;;;;43.05;19.45;;;13.80;99.90;;;;;;5064385;28;20285;-69
2021/10/27 02:52:57;;;;;;;24.08;17.10;;;13.80;99.90;;;;;;5063123;28;20227;-70
2021/10/27 02:55:27;;;;;;;28.92;20.50;;;13.80;99.90;;;;;;5067779;28;20203;-68
2021/10/27 02:57:54;;;;;;;27.08;20.80;;;13.80;99.90;;;;;;5075104;28;20625;-70
2021/10/27 03:00:21;;;;;;;27.67;18.80;;;13.80;99.90;;;;;;5067460;28;20572;-70
2021/10/27 03:02:49;;;;;;;32.17;20.45;;;13.80;99.90;;;;;;5064947;28;20716;-71
2021/10/27 03:05:17;;;;;;;28.13;20.20;;;13.70;99.90;;;;;;5070571;28;20218;-70
2021/10/27 03:07:45;;;;;;;24.08;18.70;;;13.80;99.90;;;;;;5073637;28;20289;-70
2021/10/27 03:10:16;;;;;;;27.02;16.70;;;13.80;99.90;;;;;;5066062;28;20204;-70
2021/10/27 03:12:44;;;;;;;25.27;19.08;;;13.80;99.90;;;;;;5068982;28;20222;-70
2021/10/27 03:15:14;;;;;;;25.15;19.55;;;13.80;99.90;;;;;;5066821;28;20190;-70
2021/10/27 03:17:41;;;;;;;27.13;19.52;;;13.80;99.90;;;;;;5063552;28;20544;-71
2021/10/27 03:20:12;;;;;;;33.58;24.08;;;13.90;99.90;;;;;;5058578;28;20206;-70
2021/10/27 03:22:40;;;;;;;42.38;21.77;;;13.80;99.90;;;;;;5073173;28;20271;-70
2021/10/27 03:25:10;;;;;;;29.77;19.30;;;13.80;99.90;;;;;;5066319;28;20222;-70
2021/10/27 03:27:37;;;;;;;31.00;19.77;;;13.80;99.90;;;;;;5071758;28;20591;-70
2021/10/27 03:30:06;;;;;;;32.60;21.45;;;13.70;99.90;;;;;;5062305;28;20736;-70
2021/10/27 03:32:35;;;;;;;28.48;19.40;;;13.80;99.90;;;;;;5073259;28;20222;-70
2021/10/27 03:35:02;;;;;;;29.00;19.83;;;13.80;99.90;;;;;;5067493;28;20203;-70
2021/10/27 03:37:30;;;;;;;24.15;18.50;;;13.80;99.90;;;;;;5072519;28;20199;-70
2021/10/27 03:39:59;;;;;;;26.80;20.70;;;13.80;99.90;;;;;;5069789;28;20305;-70
2021/10/27 03:42:27;;;;;;;32.38;21.23;;;13.80;99.90;;;;;;5064722;28;20274;-70
2021/10/27 03:44:54;;;;;;;26.50;19.40;;;13.90;99.90;;;;;;5066155;28;20543;-70
2021/10/27 03:47:21;;;;;;;27.45;19.02;;;13.80;99.90;;;;;;5065766;28;20195;-70
2021/10/27 03:49:49;;;;;;;25.90;19.67;;;13.80;99.90;;;;;;5060516;28;20238;-70
2021/10/27 03:52:17;;;;;;;28.88;19.02;;;13.80;99.90;;;;;;5062545;28;20725;-70
2021/10/27 03:54:44;;;;;;;29.63;19.65;;;13.80;99.90;;;;;;5059648;28;20275;-70
2021/10/27 03:57:14;;;;;;;22.35;16.70;;;13.90;99.90;;;;;;5063597;28;20204;-70
2021/10/27 03:59:41;;;;;;;23.10;19.35;;;13.90;99.90;;;;;;5059463;28;20203;-70
2021/10/27 04:02:09;;;;;;;27.30;18.10;;;13.90;99.90;;;;;;5060321;28;20235;-70
2021/10/27 04:04:36;;;;;;;19.73;15.68;;;13.90;99.90;;;;;;5072095;28;20673;-70
2021/10/27 04:07:03;;;;;;;28.25;19.50;;;13.90;99.90;;;;;;5060834;28;20203;-70
2021/10/27 04:09:31;;;;;;;28.60;18.23;;;14.00;99.90;;;;;;5065393;28;20205;-69
2021/10/27 04:11:58;;;;;;;23.48;18.17;;;14.00;99.90;;;;;;5065638;28;20218;-70
2021/10/27 04:14:26;;;;;;;25.45;18.98;;;14.00;99.90;;;;;;5058661;28;20560;-69
2021/10/27 04:16:54;;;;;;;30.90;20.10;;;14.00;99.90;;;;;;5064775;28;20863;-70
2021/10/27 04:19:21;;;;;;;33.03;21.27;;;13.90;99.90;;;;;;5061352;28;20558;-69
2021/10/27 04:21:48;;;;;;;27.77;19.15;;;13.90;99.90;;;;;;5062212;28;20343;-70
2021/10/27 04:24:16;;;;;;;30.33;21.00;;;13.80;99.90;;;;;;5066239;28;20204;-70
2021/10/27 04:26:43;;;;;;;32.70;22.25;;;13.80;99.90;;;;;;5062165;28;20204;-70
2021/10/27 04:29:10;;;;;;;29.48;21.88;;;13.80;99.90;;;;;;5061815;28;20696;-70
2021/10/27 04:31:39;;;;;;;35.05;21.67;;;13.80;99.90;;;;;;5072944;28;20202;-69
2021/10/27 04:34:06;;;;;;;29.48;21.27;;;13.80;99.90;;;;;;5060576;28;20545;-70
2021/10/27 04:36:34;;;;;;;33.13;21.42;;;13.80;99.90;;;;;;5064618;28;20206;-70
2021/10/27 04:39:01;;;;;;;29.25;21.65;;;13.80;99.90;;;;;;5066554;28;20610;-70
2021/10/27 04:41:28;;;;;;;36.35;21.10;;;13.80;99.90;;;;;;5062884;28;20202;-70
2021/10/27 04:43:55;;;;;;;30.17;23.05;;;13.80;99.90;;;;;;5064299;28;20195;-70
2021/10/27 04:46:23;;;;;;;32.00;22.63;;;13.80;99.90;;;;;;5059866;28;20215;-70
2021/10/27 04:48:51;;;;;;;33.58;22.42;;;13.80;99.90;;;;;;5065386;28;20202;-71
2021/10/27 04:51:19;;;;;;;36.50;21.75;;;13.80;99.90;;;;;;5059454;28;20210;-70
2021/10/27 04:53:46;;;;;;;29.88;20.90;;;13.70;99.90;;;;;;5065467;28;20227;-70
2021/10/27 04:56:14;;;;;;;36.72;25.30;;;13.80;99.90;;;;;;5069306;28;20535;-69
2021/10/27 04:58:41;;;;;;;31.92;23.30;;;13.80;99.90;;;;;;5074197;28;20202;-69
2021/10/27 05:01:08;;;;;;;27.20;20.90;;;13.80;99.90;;;;;;5055909;28;20226;-69
2021/10/27 05:03:35;;;;;;;32.78;23.10;;;13.90;99.90;;;;;;5069752;28;20237;-70
2021/10/27 05:06:04;;;;;;;36.65;26.83;;;13.90;99.90;;;;;;5070836;28;20235;-70
2021/10/27 05:08:35;;;;;;;42.00;26.75;;;13.90;99.90;;;;;;5066710;28;20212;-68
2021/10/27 05:11:03;;;;;;;35.00;22.55;;;13.80;99.90;;;;;;5072049;28;20305;-68
2021/10/27 05:13:32;;;;;;;37.88;25.85;;;13.80;99.90;;;;;;5063219;28;20601;-69
2021/10/27 05:15:59;;;;;;;40.05;25.17;;;13.80;99.90;;;;;;5070623;28;20571;-69
2021/10/27 05:18:27;;;;;;;37.97;27.63;;;13.80;99.90;;;;;;5061625;28;20203;-69
2021/10/27 05:20:54;;;;;;;43.80;25.38;;;13.80;99.90;;;;;;5077117;28;20672;-70
2021/10/27 05:23:23;;;;;;;37.20;24.60;;;13.80;99.90;;;;;;5065310;28;20227;-71
2021/10/27 05:25:50;;;;;;;33.35;25.58;;;13.80;99.90;;;;;;5062264;28;20269;-71
2021/10/27 05:28:18;;;;;;;33.70;24.42;;;13.80;99.90;;;;;;5062157;28;20278;-71
2021/10/27 05:30:46;;;;;;;45.53;26.92;;;13.80;99.90;;;;;;5067755;28;20658;-71
2021/10/27 05:33:14;;;;;;;35.40;25.55;;;13.80;99.90;;;;;;5073487;28;20227;-71
2021/10/27 05:35:41;;;;;;;34.25;24.40;;;13.80;99.90;;;;;;5067289;28;20290;-72
2021/10/27 05:38:09;;;;;;;35.80;24.95;;;13.80;99.90;;;;;;5074417;28;20237;-71
2021/10/27 05:40:37;;;;;;;37.60;24.65;;;13.90;99.90;;;;;;5076461;28;20206;-71
2021/10/27 05:43:09;;;;;;;42.13;25.83;;;13.90;99.90;;;;;;5072455;28;20233;-71
2021/10/27 05:45:37;;;;;;;43.63;25.85;;;14.00;99.90;;;;;;5063656;28;20685;-71
2021/10/27 05:48:06;;;;;;;31.15;23.92;;;14.00;99.90;;;;;;5065112;28;20270;-71
2021/10/27 05:50:37;;;;;;;34.10;23.83;;;14.00;99.90;;;;;;5069791;28;20601;-72
2021/10/27 05:55:51;;;;;;;37.33;25.00;;;14.00;99.90;;;;;;5062921;28;20768;-72
2021/10/27 05:58:18;;;;;;;29.23;23.30;;;14.00;99.90;;;;;;5064069;28;20572;-72
2021/10/27 06:00:47;;;;;;;35.17;23.35;;;14.00;99.90;;;;;;5054565;28;20199;-72
2021/10/27 06:03:15;;;;;;;38.25;27.42;;;14.00;99.90;;;;;;5071072;28;20580;-72
2021/10/27 06:05:42;;;;;;;32.90;23.20;;;14.00;99.90;;;;;;5074399;28;20317;-72
2021/10/27 06:08:10;;;;;;;33.20;24.10;;;14.00;99.90;;;;;;5065811;28;20203;-72
2021/10/27 06:10:37;;;;;;;37.10;24.48;;;14.00;99.90;;;;;;5059153;28;20195;-72
2021/10/27 06:13:07;;;;;;;30.48;22.30;;;14.00;99.90;;;;;;5057642;28;20687;-73
2021/10/27 06:15:35;;;;;;;37.55;26.60;;;14.00;99.90;;;;;;5060238;28;20194;-72
2021/10/27 06:18:03;;;;;;;37.63;27.90;;;14.00;99.90;;;;;;5061154;28;20214;-72
2021/10/27 06:20:31;;;;;;;32.65;23.48;;;14.00;99.90;;;;;;5065624;28;20266;-73
2021/10/27 06:22:58;;;;;;;30.70;21.88;;;14.00;99.90;;;;;;5057710;28;20604;-72
2021/10/27 06:25:27;;;;;;;29.35;22.70;;;14.10;99.90;;;;;;5060477;28;20227;-71
2021/10/27 06:28:00;;;;;;;32.88;23.95;;;14.10;99.90;;;;;;5061735;28;20227;-73
2021/10/27 06:30:42;;;;;;;36.30;24.00;;;14.10;99.90;;;;;;5071420;28;20198;-73
2021/10/27 06:33:21;;;;;;;28.88;21.23;;;14.10;99.90;;;;;;5060313;28;20219;-76
2021/10/27 06:35:55;;;;;;;33.85;20.52;;;14.20;99.90;;;;;;5062760;28;20203;-76
2021/10/27 06:38:33;;;;;;;29.27;21.08;;;14.20;99.90;;;;;;5069821;28;20239;-74
2021/10/27 06:46:38;;;;;;;24.35;20.45;;;14.20;99.90;;;;;;5075582;28;20317;-73
2021/10/27 06:49:05;;;;;;;33.58;22.35;;;14.10;99.90;;;;;;5077575;28;20202;-76
2021/10/27 06:51:34;;;;;;;25.67;20.98;;;14.00;99.90;;;;;;5074535;28;20199;-73
2021/10/27 06:54:01;;;;;;;35.03;23.00;;;14.10;99.90;;;;;;5079543;28;20202;-74
2021/10/27 06:56:33;;;;;;;29.38;21.95;;;14.20;99.90;;;;;;5067673;28;20246;-74
2021/10/27 06:59:06;;;;;;;28.20;20.08;;;14.10;99.90;;;;;;5075184;28;20206;-75
2021/10/27 07:01:53;;;;;;;34.53;21.10;;;14.20;99.90;;;;;;5066641;28;20211;-74
2021/10/27 07:15:34;;;;;;;21.40;18.15;;;14.40;99.90;;;;;;5064604;28;20198;-73
2021/10/27 07:18:04;;;;;;;22.30;16.98;;;14.40;99.90;;;;;;5068514;28;20207;-73
2021/10/27 07:20:31;;;;;;;29.58;17.85;;;14.30;99.90;;;;;;5071775;28;20266;-74
2021/10/27 07:23:00;;;;;;;26.23;17.65;;;14.30;99.90;;;;;;5070395;28;20227;-73
2021/10/27 07:25:28;;;;;;;22.08;16.45;;;14.30;99.90;;;;;;5061851;28;20605;-75
2021/10/27 07:27:56;;;;;;;17.02;13.70;;;14.30;99.90;;;;;;5071718;28;20290;-75
2021/10/27 07:30:23;;;;;;;23.50;18.10;;;14.40;99.90;;;;;;5062261;28;20676;-73
2021/10/27 07:32:53;;;;;;;20.48;16.73;;;14.40;99.90;;;;;;5062906;28;20223;-74
2021/10/27 07:35:29;;;;;;;25.70;18.15;;;14.40;99.90;;;;;;5065211;28;20196;-74
2021/10/27 07:40:46;;;;;;;16.25;13.35;;;14.40;99.90;;;;;;5059360;28;20206;-74
2021/10/27 07:43:16;;;;;;;24.50;17.85;;;14.30;99.90;;;;;;5064766;28;20214;-73
2021/10/27 07:45:45;;;;;;;28.20;18.38;;;14.30;99.90;;;;;;5059156;28;20223;-74
2021/10/27 07:48:12;;;;;;;19.15;15.43;;;14.40;99.90;;;;;;5073710;28;20268;-74
2021/10/27 07:50:41;;;;;;;24.02;16.33;;;14.30;99.90;;;;;;5066701;28;20199;-74
2021/10/27 07:53:11;;;;;;;21.65;16.42;;;14.30;99.90;;;;;;5084340;28;20225;-73
2021/10/27 07:55:41;;;;;;;30.30;18.90;;;14.30;99.90;;;;;;5072832;28;20225;-74
2021/10/27 07:58:08;;;;;;;23.92;18.55;;;14.30;99.90;;;;;;5068359;28;20231;-74
2021/10/27 08:00:36;;;;;;;26.35;19.00;;;14.30;99.90;;;;;;5073315;28;20634;-73
2021/10/27 08:03:03;;;;;;;27.38;18.13;;;14.30;99.90;;;;;;5060542;28;20231;-74
2021/10/27 08:05:32;;;;;;;20.90;18.05;;;14.30;99.90;;;;;;5060600;28;20619;-74
2021/10/27 08:08:01;;;;;;;21.90;18.50;;;14.30;99.90;;;;;;5067682;28;20203;-74
2021/10/27 08:10:29;;;;;;;23.55;18.10;;;14.30;99.90;;;;;;5071712;28;20225;-74
2021/10/27 08:13:02;;;;;;;26.60;18.83;;;14.30;99.90;;;;;;5064542;28;20567;-73
2021/10/27 08:15:30;;;;;;;24.15;17.83;;;14.40;99.90;;;;;;5058874;28;20705;-74
2021/10/27 08:17:57;;;;;;;21.33;17.20;;;14.40;99.90;;;;;;5073265;28;20249;-74
2021/10/27 08:20:27;;;;;;;19.90;16.65;;;14.50;99.90;;;;;;5062544;28;20603;-74
2021/10/27 08:22:57;;;;;;;24.23;15.73;;;14.50;99.90;;;;;;5068739;28;20219;-75
2021/10/27 08:25:30;;;;;;;18.48;15.27;;;14.60;99.90;;;;;;5063801;28;20214;-74
2021/10/27 08:28:01;;;;;;;22.13;16.65;;;14.60;99.90;;;;;;5064071;28;20233;-74
2021/10/27 08:30:35;;;;;;;22.20;18.70;;;14.60;99.90;;;;;;5063683;28;20729;-74
2021/10/27 08:33:05;;;;;;;24.10;18.92;;;14.60;99.90;;;;;;5054556;28;20219;-74
2021/10/27 08:35:35;;;;;;;22.33;17.25;;;14.50;99.90;;;;;;5068624;28;20203;-74
2021/10/27 08:38:03;;;;;;;28.67;17.92;;;14.60;99.90;;;;;;5069769;28;20297;-74
2021/10/27 08:40:32;;;;;;;22.80;17.92;;;14.60;99.90;;;;;;5061708;28;20222;-74
2021/10/27 08:42:59;;;;;;;19.38;17.40;;;14.60;99.90;;;;;;5065880;28;20226;-74
2021/10/27 08:45:28;;;;;;;22.70;18.15;;;14.60;99.90;;;;;;5070104;28;20199;-74
2021/10/27 08:47:56;;;;;;;19.58;15.45;;;14.60;99.90;;;;;;5073688;28;20568;-73
2021/10/27 08:50:25;;;;;;;21.23;16.90;;;14.70;99.90;;;;;;5074509;28;20222;-73
2021/10/27 08:52:53;;;;;;;20.00;16.48;;;14.60;99.90;;;;;;5070597;28;20254;-74
2021/10/27 08:55:20;;;;;;;20.23;18.13;;;14.70;99.90;;;;;;5067327;28;20236;-74
2021/10/27 08:57:50;;;;;;;21.58;17.05;;;14.70;99.90;;;;;;5068256;28;20257;-74
2021/10/27 09:00:22;;;;;;;20.88;17.70;;;14.70;99.90;;;;;;5066245;28;20555;-74
2021/10/27 09:03:08;;;;;;;21.48;16.88;;;14.60;99.90;;;;;;5069617;28;20288;-74
2021/10/27 09:34:38;;;;;;;19.98;14.85;;;14.90;99.90;;;;;;5062322;28;20210;-73
2021/10/27 09:37:32;;;;;;;19.10;15.07;;;14.90;99.90;;;;;;5071779;28;20226;-73
2021/10/27 10:05:33;;;;;;;17.35;15.55;;;14.90;99.90;;;;;;5068471;28;20241;-72
2021/10/27 10:08:01;;;;;;;16.27;14.68;;;14.90;99.90;;;;;;5072459;28;20597;-72
2021/10/27 10:10:29;;;;;;;20.33;14.50;;;14.90;99.90;;;;;;5074940;28;20214;-72
2021/10/27 10:13:03;;;;;;;18.02;13.98;;;14.90;99.90;;;;;;5074611;28;20246;-73
2021/10/27 10:15:37;;;;;;;18.58;14.18;;;14.90;99.90;;;;;;5068040;28;20206;-73
2021/10/27 10:18:06;;;;;;;17.73;15.93;;;14.90;99.90;;;;;;5056459;28;20664;-72
2021/10/27 10:20:38;;;;;;;17.70;15.50;;;14.90;99.90;;;;;;5069984;28;20207;-73
2021/10/27 10:23:18;;;;;;;16.33;13.00;;;14.90;99.90;;;;;;5074624;28;20559;-73
2021/10/27 10:25:56;;;;;;;15.30;13.75;;;14.90;99.90;;;;;;5068832;28;20598;-73
2021/10/27 10:28:26;;;;;;;13.75;12.45;;;15.00;99.90;;;;;;5077203;28;20509;-73
2021/10/27 10:30:56;;;;;;;18.35;14.70;;;15.00;99.90;;;;;;5075026;28;20701;-73
2021/10/27 10:33:37;;;;;;;18.67;14.15;;;15.10;99.90;;;;;;5076012;28;20298;-73
2021/10/27 10:36:09;;;;;;;19.08;13.68;;;15.10;99.90;;;;;;5071875;28;20268;-72
2021/10/27 10:41:48;;;;;;;17.70;13.85;;;15.20;99.90;;;;;;5074437;28;20764;-72
2021/10/27 10:44:33;;;;;;;16.95;13.98;;;15.20;99.90;;;;;;5051359;28;20501;-72
2021/10/27 10:59:57;;;;;;;18.00;11.20;;;15.10;99.90;;;;;;5072738;28;20309;-74
2021/10/27 11:23:16;;;;;;;14.20;10.60;;;15.40;99.90;;;;;;5066966;28;20589;-73
2021/10/27 11:25:56;;;;;;;11.98;10.60;;;15.30;99.90;;;;;;5062939;28;20243;-72
2021/10/27 11:37:30;;;;;;;13.00;8.95;;;15.30;99.90;;;;;;5066099;28;20241;-72
2021/10/27 11:40:07;;;;;;;11.40;10.20;;;15.30;99.90;;;;;;5071054;28;20191;-74
2021/10/27 11:42:42;;;;;;;11.68;9.65;;;15.40;99.90;;;;;;5058808;28;20270;-73
2021/10/27 11:45:21;;;;;;;13.75;9.35;;;15.40;99.90;;;;;;5044452;28;20280;-73
2021/10/27 11:47:52;;;;;;;11.57;9.35;;;15.40;99.90;;;;;;5050585;28;20224;-73
2021/10/27 11:50:21;;;;;;;12.55;9.70;;;15.60;99.90;;;;;;5064412;28;20713;-73
2021/10/27 11:52:52;;;;;;;12.02;9.93;;;15.70;99.90;;;;;;5061449;28;20693;-73
2021/10/27 11:55:21;;;;;;;9.70;8.77;;;15.70;99.90;;;;;;5060270;28;20209;-73
2021/10/27 11:57:54;;;;;;;15.50;10.43;;;15.60;99.90;;;;;;5062969;28;20234;-74
2021/10/27 12:00:29;;;;;;;10.88;9.38;;;15.60;99.90;;;;;;5063009;28;20200;-74
2021/10/27 12:03:00;;;;;;;11.55;8.90;;;15.60;99.90;;;;;;5068757;28;20227;-74
2021/10/27 12:05:33;;;;;;;9.75;8.75;;;15.50;99.90;;;;;;5057293;28;20551;-74
2021/10/27 12:13:57;;;;;;;16.98;9.52;;;15.50;99.90;;;;;;5016376;28;20211;-74
2021/10/27 12:17:11;;;;;;;12.40;8.10;;;15.40;99.90;;;;;;5061565;28;20202;-72
2021/10/27 12:19:38;;;;;;;11.15;7.75;;;15.30;99.90;;;;;;5072718;28;20199;-71
2021/10/27 12:22:08;;;;;;;9.00;7.88;;;15.40;99.90;;;;;;5068042;28;20242;-74
2021/10/27 12:24:38;;;;;;;10.18;7.47;;;15.40;99.90;;;;;;5068811;28;20203;-71
2021/10/27 12:27:20;;;;;;;9.57;6.90;;;15.40;99.90;;;;;;5066917;28;20239;-73
2021/10/27 12:29:53;;;;;;;7.25;6.10;;;15.40;99.90;;;;;;5055892;28;20198;-73
2021/10/27 12:32:21;;;;;;;10.55;7.18;;;15.50;99.90;;;;;;5062661;28;20215;-73
2021/10/27 12:34:50;;;;;;;6.95;6.25;;;15.50;99.90;;;;;;5077893;28;20203;-73
2021/10/27 12:37:31;;;;;;;10.55;6.30;;;15.60;99.90;;;;;;5063592;28;20197;-72
2021/10/27 12:40:24;;;;;;;7.97;6.18;;;15.70;99.90;;;;;;5071696;28;20277;-73
2021/10/27 12:43:02;;;;;;;6.55;5.68;;;15.80;99.90;;;;;;5055045;28;20262;-71
2021/10/27 12:45:37;;;;;;;8.27;5.75;;;15.80;99.90;;;;;;5067178;28;20609;-74
2021/10/27 12:48:06;;;;;;;8.73;4.85;;;15.90;99.90;;;;;;5077380;28;20513;-72
2021/10/27 12:50:34;;;;;;;10.68;5.80;;;15.90;99.90;;;;;;5065851;28;20197;-72
2021/10/27 12:53:03;;;;;;;8.73;5.90;;;15.90;99.90;;;;;;5067364;28;20691;-72
2021/10/27 12:55:33;;;;;;;6.90;5.38;;;15.90;99.90;;;;;;5062356;28;20948;-72
2021/10/27 12:58:07;;;;;;;5.53;4.55;;;15.90;99.90;;;;;;5065257;28;20659;-71
2021/10/27 13:06:18;;;;;;;10.68;5.15;;;15.90;99.90;;;;;;5068879;28;20199;-72
2021/10/27 13:20:06;;;;;;;7.82;5.32;;;15.90;99.90;;;;;;5063952;28;20289;-71
2021/10/27 13:22:43;;;;;;;10.00;4.75;;;16.00;99.90;;;;;;5050959;28;20216;-74
2021/10/27 13:30:55;;;;;;;8.00;5.22;;;16.00;99.90;;;;;;5006419;28;20206;-72
2021/10/27 13:33:24;;;;;;;5.97;4.85;;;16.00;99.90;;;;;;5050220;28;20225;-73
2021/10/27 13:35:52;;;;;;;9.70;6.00;;;16.00;99.90;;;;;;5073770;28;20208;-72
2021/10/27 13:38:21;;;;;;;10.00;5.03;;;16.10;99.90;;;;;;5060464;28;20556;-72
2021/10/27 13:40:48;;;;;;;10.43;4.43;;;16.20;99.90;;;;;;5060462;28;20213;-73
2021/10/27 13:43:21;;;;;;;19.58;8.75;;;16.10;99.90;;;;;;5061918;28;20220;-72
2021/10/27 13:45:59;;;;;;;5.55;4.10;;;16.10;99.90;;;;;;5065868;28;20201;-72
2021/10/27 13:48:39;;;;;;;4.67;4.00;;;16.10;99.90;;;;;;5048278;28;20673;-72
2021/10/27 14:07:36;;;;;;;5.53;4.32;;;16.10;99.90;;;;;;5069293;28;20477;-72
2021/10/27 14:10:07;;;;;;;8.65;5.30;;;16.10;99.90;;;;;;5065353;28;20239;-73
2021/10/27 14:12:42;;;;;;;9.27;3.83;;;16.10;99.90;;;;;;5062903;28;20256;-73
2021/10/27 14:15:22;;;;;;;4.45;2.47;;;16.10;99.90;;;;;;5071744;28;20456;-72
2021/10/27 14:40:27;;;;;;;8.40;2.97;;;16.00;99.90;;;;;;5064072;28;20671;-72
2021/10/27 14:50:27;;;;;;;10.15;3.83;;;16.00;99.90;;;;;;5065043;28;20250;-71
2021/10/27 14:58:43;;;;;;;3.30;3.00;;;15.90;99.90;;;;;;5068558;28;20195;-72
2021/10/27 15:21:58;;;;;;;3.95;3.13;;;16.00;99.90;;;;;;5068962;28;20299;-72
2021/10/27 15:24:40;;;;;;;4.15;3.72;;;16.00;99.90;;;;;;5061086;28;20295;-72
2021/10/27 15:30:26;;;;;;;6.55;4.40;;;16.00;99.90;;;;;;5073911;28;20434;-73
2021/10/27 15:33:05;;;;;;;5.07;4.10;;;16.00;99.90;;;;;;5068596;28;20221;-73
2021/10/27 15:35:57;;;;;;;6.28;3.95;;;16.00;99.90;;;;;;5065663;28;20282;-71
2021/10/27 15:41:16;;;;;;;4.97;3.65;;;16.00;99.90;;;;;;5068921;28;20206;-72
2021/10/27 15:43:52;;;;;;;7.50;4.20;;;16.10;99.90;;;;;;5070332;28;20280;-72
2021/10/27 15:51:53;;;;;;;6.13;3.97;;;16.00;99.90;;;;;;5066687;28;20314;-72
2021/10/27 15:54:21;;;;;;;7.95;4.22;;;16.00;99.90;;;;;;5067954;28;20556;-72
2021/10/27 15:56:48;;;;;;;6.05;3.80;;;16.00;99.90;;;;;;5072457;28;20573;-72
2021/10/27 15:59:19;;;;;;;9.50;4.95;;;16.00;99.90;;;;;;5069950;28;20272;-72
2021/10/27 16:01:46;;;;;;;8.30;4.60;;;15.90;99.90;;;;;;5062773;28;20284;-71
2021/10/27 16:04:15;;;;;;;7.22;4.57;;;15.90;99.90;;;;;;5063656;28;20446;-73
2021/10/27 16:06:50;;;;;;;8.80;4.28;;;15.90;99.90;;;;;;5063639;28;20596;-71
2021/10/27 16:09:18;;;;;;;5.38;4.53;;;15.90;99.90;;;;;;5066792;28;20230;-72
2021/10/27 16:11:46;;;;;;;5.38;4.45;;;15.80;99.90;;;;;;5070844;28;20225;-72
2021/10/27 16:14:14;;;;;;;7.50;4.47;;;15.70;99.90;;;;;;5063938;28;20225;-70
2021/10/27 16:16:42;;;;;;;6.53;4.85;;;15.80;99.90;;;;;;5072045;28;20203;-72
2021/10/27 16:19:09;;;;;;;6.20;4.45;;;15.70;99.90;;;;;;5065324;28;20230;-73
2021/10/27 16:21:38;;;;;;;10.23;6.45;;;15.70;99.90;;;;;;5078253;28;20204;-73
2021/10/27 16:24:06;;;;;;;10.00;4.93;;;15.80;99.90;;;;;;5076229;28;20210;-72
2021/10/27 16:26:51;;;;;;;10.07;4.75;;;15.80;99.90;;;;;;5071959;28;20212;-71
2021/10/27 16:29:18;;;;;;;7.30;4.28;;;15.80;99.90;;;;;;5073604;28;20327;-72
2021/10/27 16:31:48;;;;;;;8.52;4.78;;;15.80;99.90;;;;;;5074801;28;20730;-73
2021/10/27 16:34:16;;;;;;;5.68;4.30;;;15.80;99.90;;;;;;5064823;28;20206;-72
2021/10/27 16:36:44;;;;;;;6.80;4.63;;;15.90;99.90;;;;;;5072400;28;20203;-71
2021/10/27 16:39:12;;;;;;;6.18;4.85;;;15.90;99.90;;;;;;5053782;28;20193;-72